Terminal Aerodrome Forecast
Issued by NWS

Home | Current Version | Previous Version | Text Only | Print | Product List | Glossary On
Versions: 1 2 3 4 5 6 7 8 9 10 11 12 13 14 15 16 17 18 19 20 21 22
000
FTUS43 KFGF 160533 AAA
TAFTVF
TAF AMD
KTVF 160533Z 1606/1706 11010KT 4SM -SN BKN025 OVC035
     FM160700 11010KT 3SM -SN OVC015
     FM161000 11009KT P6SM OVC015
      TEMPO 1610/1612 -SN OVC003
     FM161500 15007KT P6SM OVC010
     FM170300 VRB03KT P6SM BKN040=

USA.gov is the U.S. government's official web portal to all federal, state and local government web resources and services.